Terminal Aerodrome Forecast
Issued by NWS Sioux Falls, SD

Home | Current Version | Previous Version | Graphics & Text | Print | Product List | Glossary On
Versions: 1 2 3 4 5 6 7 8 9 10 11 12 13 14
221
FTUS43 KFSD 221739
TAFFSD
TAF
KFSD 221739Z 2218/2318 17015G23KT P6SM SCT045 SCT250
     FM230900 17014KT P6SM SHRA VCTS OVC030CB
     FM231100 17010KT P6SM -SHRA OVC025
     FM231500 18012KT P6SM OVC035=

USA.gov is the U.S. government's official web portal to all federal, state and local government web resources and services.